Time;durP1;ratioP1;P1;durP2;ratioP2;P2;SDS_P1;SDS_P2;PMS_P1;PMS_P2;Temp;Humidity;BMP_temperature;BMP_pressure;BME280_temperature;BME280_humidity;BME280_pressure;Samples;Min_cycle;Max_cycle;Signal;HPM_P1;HPM_P2
2021/06/22 00:01:53;;;;;;;0.90;0.77;;;20.90;80.20;;;;;;10458050;28;20664;-27
2021/06/22 00:07:19;;;;;;;1.70;0.87;;;20.90;80.00;;;;;;10457598;28;20220;-26
2021/06/22 00:12:41;;;;;;;1.67;1.10;;;20.90;79.90;;;;;;10458047;28;20211;-27
2021/06/22 00:18:05;;;;;;;1.43;0.90;;;20.90;80.00;;;;;;10498383;28;20220;-27
2021/06/22 00:23:27;;;;;;;1.10;1.00;;;20.90;80.00;;;;;;10495341;28;20200;-27
2021/06/22 00:28:50;;;;;;;1.50;1.00;;;20.90;80.10;;;;;;10499184;28;20571;-27
2021/06/22 00:34:13;;;;;;;1.70;1.20;;;20.80;80.00;;;;;;10498059;28;20243;-28
2021/06/22 00:39:36;;;;;;;1.70;1.07;;;20.90;79.80;;;;;;10497772;28;20227;-27
2021/06/22 00:44:59;;;;;;;2.07;0.97;;;20.80;79.70;;;;;;10496708;28;20219;-27
2021/06/22 00:50:23;;;;;;;1.43;1.00;;;20.90;79.90;;;;;;10491623;28;20192;-28
2021/06/22 00:55:45;;;;;;;2.70;1.17;;;20.90;79.80;;;;;;10497294;28;20216;-28
2021/06/22 01:01:07;;;;;;;4.53;1.50;;;20.90;79.80;;;;;;10498436;28;20215;-28
2021/06/22 01:06:31;;;;;;;2.47;1.27;;;20.90;79.80;;;;;;10496493;28;20232;-27
2021/06/22 01:11:53;;;;;;;3.17;1.33;;;20.90;79.70;;;;;;10486874;28;20200;-28
2021/06/22 01:17:15;;;;;;;2.77;1.30;;;20.80;79.70;;;;;;10496522;28;20223;-27
2021/06/22 01:22:42;;;;;;;3.87;1.57;;;20.80;79.70;;;;;;10470678;28;20204;-28
2021/06/22 01:28:05;;;;;;;1.73;1.27;;;20.80;79.70;;;;;;10455180;28;20220;-25
2021/06/22 01:33:27;;;;;;;2.93;1.57;;;20.90;79.80;;;;;;10494151;28;20679;-25
2021/06/22 01:38:50;;;;;;;2.40;1.47;;;20.80;79.70;;;;;;10495114;28;20239;-25
2021/06/22 01:44:13;;;;;;;1.60;1.27;;;20.80;79.50;;;;;;10495398;28;20217;-25
2021/06/22 01:49:35;;;;;;;3.47;1.70;;;20.80;79.60;;;;;;10494976;28;20193;-25
2021/06/22 01:55:05;;;;;;;3.13;1.60;;;20.80;79.70;;;;;;10495418;28;20239;-25
2021/06/22 02:00:27;;;;;;;2.77;1.70;;;20.80;79.60;;;;;;10492878;28;20213;-25
2021/06/22 02:05:49;;;;;;;2.83;1.53;;;20.80;79.50;;;;;;10493900;28;20726;-25
2021/06/22 02:11:13;;;;;;;2.60;1.60;;;20.80;79.60;;;;;;10495116;28;20215;-25
2021/06/22 02:16:35;;;;;;;2.70;1.50;;;20.80;79.60;;;;;;10492664;28;20227;-24
2021/06/22 02:21:57;;;;;;;2.73;1.60;;;20.80;79.60;;;;;;10493705;28;20216;-25
2021/06/22 02:27:29;;;;;;;2.67;1.60;;;20.80;79.40;;;;;;10492881;28;20212;-24
2021/06/22 02:32:51;;;;;;;2.67;1.67;;;20.80;79.50;;;;;;10494358;28;20207;-25
2021/06/22 02:38:14;;;;;;;4.00;1.67;;;20.80;79.50;;;;;;10492516;28;20223;-25
2021/06/22 02:43:37;;;;;;;2.70;1.73;;;20.80;79.40;;;;;;10493851;28;20196;-25
2021/06/22 02:48:59;;;;;;;2.53;1.53;;;20.80;79.40;;;;;;10492260;28;20189;-25
2021/06/22 02:54:21;;;;;;;2.43;1.70;;;20.80;79.40;;;;;;10486254;28;20231;-25
2021/06/22 02:59:45;;;;;;;1.63;1.33;;;20.80;79.50;;;;;;10493123;28;20607;-24
2021/06/22 03:05:08;;;;;;;3.73;1.93;;;20.80;79.60;;;;;;10494229;28;20250;-25
2021/06/22 03:10:30;;;;;;;1.67;1.57;;;20.80;79.60;;;;;;10493212;28;20199;-25
2021/06/22 03:15:53;;;;;;;2.97;1.70;;;20.80;79.40;;;;;;10493723;28;20601;-24
2021/06/22 03:21:15;;;;;;;5.00;1.93;;;20.80;79.50;;;;;;10490169;28;20227;-25
2021/06/22 03:26:38;;;;;;;4.50;1.93;;;20.80;79.30;;;;;;10492192;28;20216;-25
2021/06/22 03:32:01;;;;;;;2.00;1.63;;;20.80;79.30;;;;;;10491700;28;20200;-25
2021/06/22 03:37:23;;;;;;;3.00;1.80;;;20.80;79.30;;;;;;10491994;28;20219;-25
2021/06/22 03:42:47;;;;;;;2.80;1.80;;;20.80;79.30;;;;;;10491248;28;20275;-25
2021/06/22 03:48:10;;;;;;;4.53;2.00;;;20.80;79.40;;;;;;10491232;28;20358;-25
2021/06/22 03:53:32;;;;;;;2.53;1.80;;;20.80;79.40;;;;;;10490685;28;20603;-25
2021/06/22 03:58:54;;;;;;;2.90;2.00;;;20.80;79.30;;;;;;10490835;28;20722;-25
2021/06/22 04:09:32;;;;;;;2.03;1.70;;;20.70;79.30;;;;;;10522979;28;20224;-29
2021/06/22 04:14:54;;;;;;;2.63;1.67;;;20.70;79.40;;;;;;10532813;28;20211;-29
2021/06/22 04:20:17;;;;;;;3.20;1.90;;;20.80;79.30;;;;;;10519109;28;20208;-28
2021/06/22 04:25:41;;;;;;;2.03;1.80;;;20.80;79.10;;;;;;10524742;28;20713;-29
2021/06/22 04:31:03;;;;;;;4.13;1.90;;;20.70;79.20;;;;;;10541895;28;20658;-28
2021/06/22 04:36:25;;;;;;;3.13;1.80;;;20.80;79.30;;;;;;10541472;28;20215;-28
2021/06/22 04:41:49;;;;;;;3.07;1.83;;;20.80;79.20;;;;;;10534299;28;20310;-28
2021/06/22 04:47:11;;;;;;;2.80;1.90;;;20.80;79.20;;;;;;10540398;28;20215;-27
2021/06/22 04:52:33;;;;;;;4.00;2.10;;;20.70;79.20;;;;;;10541420;28;20180;-29
2021/06/22 04:57:59;;;;;;;2.60;1.70;;;20.80;79.30;;;;;;10539276;28;20227;-29
2021/06/22 05:03:21;;;;;;;4.30;2.00;;;20.70;79.20;;;;;;10532849;28;20196;-28
2021/06/22 05:08:44;;;;;;;2.67;2.03;;;20.80;79.20;;;;;;10530235;28;20232;-28
2021/06/22 05:14:07;;;;;;;2.73;1.73;;;20.80;79.30;;;;;;10529451;28;20207;-28
2021/06/22 05:19:29;;;;;;;2.37;1.73;;;20.70;79.20;;;;;;10537500;28;20208;-28
2021/06/22 05:24:51;;;;;;;2.63;1.40;;;20.70;79.20;;;;;;10544387;28;20220;-28
2021/06/22 05:30:17;;;;;;;2.67;1.60;;;20.70;78.80;;;;;;10538041;28;20195;-29
2021/06/22 05:35:39;;;;;;;2.13;1.60;;;20.70;78.90;;;;;;10537296;28;20212;-28
2021/06/22 05:41:02;;;;;;;3.70;2.00;;;20.70;78.80;;;;;;10537355;28;20219;-28
2021/06/22 05:46:25;;;;;;;6.20;2.37;;;20.70;78.70;;;;;;10537536;28;20220;-29
2021/06/22 05:51:47;;;;;;;6.10;2.70;;;20.70;78.70;;;;;;10535816;28;20809;-29
2021/06/22 05:57:09;;;;;;;10.07;3.27;;;20.70;75.10;;;;;;10519981;28;20223;-27
2021/06/22 06:02:33;;;;;;;7.33;3.10;;;20.00;71.60;;;;;;10512409;28;20701;-28
2021/06/22 06:07:55;;;;;;;8.53;3.13;;;19.50;73.00;;;;;;10536466;28;20227;-27
2021/06/22 06:13:17;;;;;;;10.47;2.97;;;19.30;73.70;;;;;;10542064;28;20686;-28
2021/06/22 06:18:41;;;;;;;8.67;2.77;;;19.10;73.70;;;;;;10512877;28;20715;-27
2021/06/22 06:24:03;;;;;;;8.40;2.97;;;19.10;73.40;;;;;;10532929;28;20567;-27
2021/06/22 06:29:32;;;;;;;6.07;2.57;;;19.00;73.40;;;;;;10535125;28;20231;-27
2021/06/22 06:34:55;;;;;;;7.40;2.90;;;19.00;72.80;;;;;;10534004;28;20219;-27
2021/06/22 06:40:18;;;;;;;9.47;2.87;;;19.00;73.40;;;;;;10534860;28;20212;-27
2021/06/22 06:45:40;;;;;;;8.93;3.30;;;19.00;73.80;;;;;;10534356;28;20211;-28
2021/06/22 06:51:05;;;;;;;8.73;2.80;;;19.00;74.70;;;;;;10520453;28;20195;-27
2021/06/22 06:56:27;;;;;;;10.07;2.50;;;19.10;73.80;;;;;;10531426;28;20297;-28
2021/06/22 07:01:50;;;;;;;9.40;3.17;;;19.10;72.50;;;;;;10533409;28;20566;-28
2021/06/22 07:07:13;;;;;;;8.83;2.60;;;19.10;72.10;;;;;;10533116;28;20223;-27
2021/06/22 07:12:35;;;;;;;7.93;2.30;;;19.30;72.50;;;;;;10517548;28;20540;-27
2021/06/22 07:17:58;;;;;;;8.93;2.63;;;19.20;72.20;;;;;;10535445;28;20215;-27
2021/06/22 07:23:21;;;;;;;7.17;2.80;;;19.50;72.30;;;;;;10532982;28;20196;-27
2021/06/22 07:28:43;;;;;;;8.80;2.60;;;19.60;73.00;;;;;;10532798;28;20215;-27
2021/06/22 07:34:06;;;;;;;8.77;2.53;;;19.80;73.50;;;;;;10503679;28;20204;-27
2021/06/22 07:39:29;;;;;;;7.23;1.93;;;19.90;72.90;;;;;;10530480;28;20219;-27
2021/06/22 07:44:51;;;;;;;9.13;2.87;;;20.00;73.10;;;;;;10533306;28;20215;-27
2021/06/22 07:50:14;;;;;;;8.07;2.60;;;20.10;73.10;;;;;;10531702;28;20184;-27
2021/06/22 07:55:38;;;;;;;5.00;2.17;;;20.20;73.50;;;;;;10513851;28;20216;-28
2021/06/22 08:01:00;;;;;;;7.37;2.47;;;20.30;73.50;;;;;;10521276;28;20215;-28
2021/06/22 08:06:22;;;;;;;8.77;2.30;;;20.30;73.40;;;;;;10540591;28;20230;-28
2021/06/22 08:11:46;;;;;;;6.10;1.97;;;20.30;73.20;;;;;;10516927;28;20219;-28
2021/06/22 08:17:08;;;;;;;6.80;2.20;;;20.40;72.80;;;;;;10509472;28;20223;-28
2021/06/22 08:22:30;;;;;;;5.27;2.37;;;20.40;72.10;;;;;;10539536;28;20211;-28
2021/06/22 08:27:54;;;;;;;4.47;2.00;;;20.50;71.90;;;;;;10538596;28;20215;-28
2021/06/22 08:33:16;;;;;;;5.83;1.87;;;20.50;71.80;;;;;;10541294;28;20199;-27
2021/06/22 08:38:38;;;;;;;3.93;1.70;;;20.50;71.50;;;;;;10540890;28;20212;-27
2021/06/22 08:44:04;;;;;;;5.63;1.70;;;20.60;69.90;;;;;;10539058;28;20192;-28
2021/06/22 08:49:27;;;;;;;5.40;1.87;;;20.50;68.40;;;;;;10539234;28;20282;-27
2021/06/22 08:54:50;;;;;;;8.83;2.30;;;20.60;69.50;;;;;;10529442;28;20303;-28
2021/06/22 09:00:14;;;;;;;3.90;1.57;;;20.60;71.00;;;;;;10504874;28;20226;-29
2021/06/22 09:05:36;;;;;;;5.60;2.20;;;20.60;72.30;;;;;;10534599;28;20880;-27
2021/06/22 09:11:05;;;;;;;4.57;2.07;;;20.60;72.70;;;;;;10520945;28;20198;-27
2021/06/22 09:16:30;;;;;;;4.33;1.80;;;20.60;73.10;;;;;;10529498;28;20217;-28
2021/06/22 09:21:53;;;;;;;7.00;2.10;;;20.60;73.30;;;;;;10517037;28;20207;-28
2021/06/22 09:27:15;;;;;;;4.07;1.80;;;20.70;72.80;;;;;;10536453;28;20226;-27
2021/06/22 09:32:39;;;;;;;6.60;2.07;;;20.70;71.00;;;;;;10507569;28;20199;-28
2021/06/22 09:38:04;;;;;;;6.97;2.40;;;20.70;70.50;;;;;;10501420;28;20224;-28
2021/06/22 09:43:35;;;;;;;6.43;2.10;;;20.70;70.50;;;;;;10497256;28;20591;-27
2021/06/22 09:48:59;;;;;;;8.10;2.10;;;20.70;71.20;;;;;;10528552;28;20208;-27
2021/06/22 09:54:22;;;;;;;4.33;2.13;;;20.70;71.40;;;;;;10532911;28;20195;-27
2021/06/22 09:59:52;;;;;;;5.00;1.77;;;20.70;72.10;;;;;;10514197;28;20567;-27
2021/06/22 10:05:17;;;;;;;5.23;1.93;;;20.70;71.40;;;;;;10562217;22;20238;-29
2021/06/22 10:10:41;;;;;;;9.03;1.70;;;20.70;71.30;;;;;;10476967;28;20208;-26
2021/06/22 10:16:26;;;;;;;6.47;1.77;;;20.60;71.40;;;;;;10492877;28;20208;-27
2021/06/22 10:21:50;;;;;;;3.53;1.93;;;20.70;71.40;;;;;;10469251;28;20292;-27
2021/06/22 10:27:13;;;;;;;5.03;1.87;;;20.60;71.30;;;;;;10480936;28;20298;-26
2021/06/22 10:32:35;;;;;;;5.23;1.80;;;20.70;71.20;;;;;;10491822;28;20188;-27
2021/06/22 10:38:03;;;;;;;5.17;1.93;;;20.70;71.20;;;;;;10472713;28;20228;-27
2021/06/22 10:43:35;;;;;;;6.70;1.87;;;20.60;70.60;;;;;;10472779;28;20366;-26
2021/06/22 10:48:57;;;;;;;6.47;2.27;;;20.60;70.50;;;;;;10493513;28;20227;-27
2021/06/22 10:54:54;;;;;;;3.87;1.80;;;20.70;72.00;;;;;;10492899;28;20586;-27
2021/06/22 11:00:16;;;;;;;3.63;1.80;;;20.70;72.70;;;;;;10491380;28;20315;-27
2021/06/22 11:05:39;;;;;;;3.57;1.80;;;20.70;72.60;;;;;;10491874;28;20216;-26
2021/06/22 11:11:20;;;;;;;4.57;1.93;;;20.70;71.90;;;;;;10491213;28;20192;-26
2021/06/22 11:16:42;;;;;;;4.37;2.00;;;20.70;71.40;;;;;;10450437;28;20717;-26
2021/06/22 11:22:04;;;;;;;4.50;1.90;;;20.70;70.80;;;;;;10482083;28;20251;-26
2021/06/22 11:27:28;;;;;;;4.87;2.30;;;20.70;71.20;;;;;;10492426;28;20675;-26
2021/06/22 11:32:50;;;;;;;3.73;1.73;;;20.70;71.60;;;;;;10493757;28;20199;-26
2021/06/22 11:38:13;;;;;;;3.43;1.87;;;20.70;71.50;;;;;;10471816;28;20565;-27
2021/06/22 11:43:37;;;;;;;4.27;1.90;;;20.70;71.00;;;;;;10496914;28;20219;-26
2021/06/22 11:49:00;;;;;;;4.97;1.80;;;20.70;71.40;;;;;;10491350;28;20228;-27
2021/06/22 11:55:14;;;;;;;4.13;2.13;;;20.70;71.80;;;;;;10475025;28;20204;-26
2021/06/22 12:00:37;;;;;;;3.23;1.73;;;20.80;71.90;;;;;;10454295;28;20224;-26
2021/06/22 12:06:17;;;;;;;9.40;2.07;;;20.70;72.10;;;;;;10496432;28;20220;-27
2021/06/22 12:11:43;;;;;;;4.10;1.90;;;20.70;72.20;;;;;;10500200;28;20199;-26
2021/06/22 12:17:15;;;;;;;3.43;2.40;;;20.70;71.90;;;;;;10489185;28;20217;-27
2021/06/22 12:22:37;;;;;;;6.47;2.40;;;20.70;71.40;;;;;;10484680;28;20220;-27
2021/06/22 12:27:59;;;;;;;4.57;2.30;;;20.70;67.20;;;;;;10476528;28;20220;-27
2021/06/22 12:33:24;;;;;;;8.10;2.97;;;20.70;68.10;;;;;;10497315;28;20196;-27
2021/06/22 12:38:49;;;;;;;6.07;2.20;;;20.60;65.90;;;;;;10498174;28;20220;-27
2021/06/22 12:44:11;;;;;;;4.87;2.00;;;20.60;65.80;;;;;;10495542;28;20197;-27
2021/06/22 12:49:36;;;;;;;6.70;2.53;;;20.60;66.10;;;;;;10498784;28;20213;-26
2021/06/22 12:54:59;;;;;;;4.80;2.33;;;20.60;64.20;;;;;;10484696;28;20295;-27
2021/06/22 13:00:35;;;;;;;5.53;2.20;;;20.60;64.80;;;;;;10456259;28;20692;-27
2021/06/22 13:05:58;;;;;;;6.97;2.47;;;20.60;66.00;;;;;;10489469;28;20231;-27
2021/06/22 13:11:28;;;;;;;5.27;2.57;;;20.60;64.90;;;;;;10460345;28;20527;-26
2021/06/22 13:16:57;;;;;;;6.87;2.40;;;20.60;64.90;;;;;;10510824;28;20262;-26
2021/06/22 13:22:27;;;;;;;4.43;2.33;;;20.60;65.70;;;;;;10499200;28;20228;-26
2021/06/22 13:27:54;;;;;;;5.37;2.63;;;20.60;66.70;;;;;;10491697;28;20591;-26
2021/06/22 13:33:21;;;;;;;5.67;2.77;;;20.60;68.40;;;;;;10497301;28;20200;-26
2021/06/22 13:38:44;;;;;;;6.80;2.20;;;20.60;66.80;;;;;;10454589;28;20311;-26
2021/06/22 13:44:06;;;;;;;7.50;2.70;;;20.60;66.90;;;;;;10455379;28;20275;-26
2021/06/22 13:49:36;;;;;;;7.33;2.70;;;20.60;66.30;;;;;;10477861;28;20560;-26
2021/06/22 13:55:00;;;;;;;10.30;2.83;;;20.60;64.30;;;;;;10454126;28;20568;-26
2021/06/22 14:00:22;;;;;;;10.40;3.17;;;20.70;64.60;;;;;;10474033;28;20694;-26
2021/06/22 14:05:46;;;;;;;5.43;2.63;;;20.60;64.90;;;;;;10480174;28;20235;-27
2021/06/22 14:11:09;;;;;;;6.83;2.37;;;20.60;65.70;;;;;;10493967;28;20191;-27
2021/06/22 14:16:33;;;;;;;5.10;2.47;;;20.70;65.30;;;;;;10517543;28;20220;-26
2021/06/22 14:21:55;;;;;;;5.17;2.30;;;20.60;66.20;;;;;;10513991;28;20709;-26
2021/06/22 14:27:19;;;;;;;4.73;2.23;;;20.60;65.80;;;;;;10497212;28;20222;-26
2021/06/22 14:32:42;;;;;;;6.97;2.27;;;20.60;65.60;;;;;;10528402;28;20192;-26
2021/06/22 14:38:04;;;;;;;6.07;1.97;;;20.60;65.70;;;;;;10453879;28;20217;-26
2021/06/22 14:43:28;;;;;;;6.67;2.20;;;20.60;64.70;;;;;;10452521;28;20209;-26
2021/06/22 14:48:50;;;;;;;8.17;2.50;;;20.60;64.20;;;;;;10460770;28;20216;-26
2021/06/22 14:54:12;;;;;;;6.00;2.07;;;20.50;63.30;;;;;;10459807;28;20302;-26
2021/06/22 14:59:38;;;;;;;5.63;2.03;;;20.50;64.50;;;;;;10482376;28;20216;-26
2021/06/22 15:05:00;;;;;;;8.13;2.33;;;20.50;64.00;;;;;;10450846;28;20278;-27
2021/06/22 15:10:24;;;;;;;7.53;1.83;;;20.50;62.20;;;;;;10483478;28;20188;-25
2021/06/22 15:15:47;;;;;;;10.97;2.13;;;20.50;63.40;;;;;;10447832;28;20216;-26
2021/06/22 15:21:09;;;;;;;7.33;2.10;;;20.50;63.70;;;;;;10465423;28;20730;-26
2021/06/22 15:26:31;;;;;;;5.70;1.83;;;20.50;63.00;;;;;;10489715;28;20216;-25
2021/06/22 15:31:56;;;;;;;5.50;2.13;;;20.50;63.80;;;;;;10491880;28;20199;-26
2021/06/22 15:37:19;;;;;;;5.30;2.23;;;20.50;64.00;;;;;;10492434;28;20686;-27
2021/06/22 15:42:43;;;;;;;6.67;2.20;;;20.50;63.60;;;;;;10490720;28;20227;-26
2021/06/22 15:48:08;;;;;;;7.03;2.33;;;20.40;62.30;;;;;;10492016;28;20224;-26
2021/06/22 15:53:30;;;;;;;9.33;2.50;;;20.40;63.10;;;;;;10487054;28;20200;-26
2021/06/22 15:58:52;;;;;;;7.40;2.00;;;20.40;62.90;;;;;;10463386;28;20216;-26
2021/06/22 16:04:16;;;;;;;10.30;2.40;;;20.40;62.50;;;;;;10482087;28;20220;-26
2021/06/22 16:09:38;;;;;;;7.67;2.30;;;20.40;61.90;;;;;;10528142;22;20239;-27
2021/06/22 16:15:00;;;;;;;4.77;2.07;;;20.40;61.80;;;;;;10530353;28;20218;-28
2021/06/22 16:20:25;;;;;;;5.03;2.40;;;20.30;60.40;;;;;;10493764;28;20231;-29
2021/06/22 16:25:47;;;;;;;9.60;2.50;;;20.30;60.30;;;;;;10477745;28;20216;-29
2021/06/22 16:31:12;;;;;;;6.13;2.30;;;20.20;60.70;;;;;;10489913;28;20671;-29
2021/06/22 16:36:36;;;;;;;4.67;2.13;;;20.20;60.20;;;;;;10495132;28;20216;-29
2021/06/22 16:41:58;;;;;;;7.53;2.30;;;20.20;60.70;;;;;;10465666;28;20223;-28
2021/06/22 16:47:20;;;;;;;4.73;1.97;;;20.20;60.80;;;;;;10456050;28;20673;-29
2021/06/22 16:52:43;;;;;;;5.70;2.30;;;20.20;61.30;;;;;;10456796;28;20200;-29
2021/06/22 16:58:06;;;;;;;15.23;2.40;;;20.20;60.30;;;;;;10468047;28;20224;-29
2021/06/22 17:03:28;;;;;;;7.07;2.50;;;20.20;61.50;;;;;;10476515;28;20220;-28
2021/06/22 17:08:51;;;;;;;8.57;2.67;;;20.20;60.50;;;;;;10496485;28;20729;-28
2021/06/22 17:14:14;;;;;;;8.37;2.20;;;20.10;60.70;;;;;;10496629;28;20193;-28
2021/06/22 17:19:36;;;;;;;4.40;2.00;;;20.10;60.50;;;;;;10495240;28;20215;-29
2021/06/22 17:24:59;;;;;;;10.23;2.43;;;20.10;61.60;;;;;;10456214;28;20217;-29
2021/06/22 17:30:22;;;;;;;7.20;2.20;;;20.10;60.70;;;;;;10458187;28;20204;-28
2021/06/22 17:35:44;;;;;;;9.13;2.50;;;20.00;61.30;;;;;;10464438;28;20296;-29
2021/06/22 17:41:07;;;;;;;5.80;2.00;;;20.00;61.80;;;;;;10453155;28;20612;-29
2021/06/22 17:46:29;;;;;;;6.67;2.10;;;19.90;61.60;;;;;;10479505;28;20216;-30
2021/06/22 17:51:52;;;;;;;8.33;2.40;;;20.00;61.30;;;;;;10494715;28;20694;-29
2021/06/22 17:57:15;;;;;;;11.47;3.03;;;20.00;61.10;;;;;;10492848;28;20217;-28
2021/06/22 18:02:37;;;;;;;6.80;1.70;;;20.00;61.70;;;;;;10484519;28;20564;-29
2021/06/22 18:08:00;;;;;;;5.43;1.73;;;20.00;62.40;;;;;;10494230;28;20236;-30
2021/06/22 18:13:23;;;;;;;9.83;2.33;;;20.00;61.90;;;;;;10493521;28;20188;-28
2021/06/22 18:18:45;;;;;;;5.73;1.70;;;19.90;62.50;;;;;;10484337;28;20719;-28
2021/06/22 18:24:08;;;;;;;4.70;1.53;;;19.80;62.40;;;;;;10466278;28;20221;-28
2021/06/22 18:29:31;;;;;;;10.00;2.40;;;19.90;63.00;;;;;;10453413;28;20250;-28
2021/06/22 18:34:54;;;;;;;7.70;1.70;;;20.00;63.60;;;;;;10459139;28;20204;-28
2021/06/22 18:40:18;;;;;;;9.47;2.37;;;20.00;62.20;;;;;;10456924;28;20588;-28
2021/06/22 18:45:42;;;;;;;10.97;2.10;;;19.80;62.10;;;;;;10490534;28;20231;-28
2021/06/22 18:51:04;;;;;;;9.27;2.20;;;19.80;61.80;;;;;;10486199;28;20735;-28
2021/06/22 18:56:27;;;;;;;6.17;1.97;;;19.70;61.40;;;;;;10467565;28;20217;-28
2021/06/22 19:01:50;;;;;;;7.00;1.67;;;19.60;62.30;;;;;;10492735;28;20672;-28
2021/06/22 19:07:12;;;;;;;8.10;2.23;;;19.50;62.50;;;;;;10479358;28;20231;-28
2021/06/22 19:12:35;;;;;;;7.20;2.17;;;19.40;63.30;;;;;;10466993;28;20550;-28
2021/06/22 19:17:58;;;;;;;6.60;2.00;;;19.70;64.70;;;;;;10467823;28;20221;-28
2021/06/22 19:23:21;;;;;;;6.33;1.90;;;19.90;65.30;;;;;;10470452;28;20224;-27
2021/06/22 19:28:43;;;;;;;3.80;1.60;;;20.00;66.00;;;;;;10469862;28;20209;-28
2021/06/22 19:34:07;;;;;;;4.00;1.63;;;20.10;67.10;;;;;;10475034;28;20262;-28
2021/06/22 19:39:29;;;;;;;3.40;1.60;;;20.20;66.80;;;;;;10470463;28;20209;-27
2021/06/22 19:44:51;;;;;;;5.47;1.60;;;20.20;66.90;;;;;;10470983;28;20209;-27
2021/06/22 19:50:15;;;;;;;7.10;1.93;;;20.30;67.10;;;;;;10466791;28;20219;-28
2021/06/22 19:55:37;;;;;;;3.73;1.40;;;20.20;67.40;;;;;;10471892;28;20185;-28
2021/06/22 20:00:59;;;;;;;5.00;1.60;;;20.30;67.70;;;;;;10480132;28;20220;-28
2021/06/22 20:06:23;;;;;;;3.37;1.53;;;20.30;67.90;;;;;;10478997;28;20228;-28
2021/06/22 20:11:45;;;;;;;4.87;1.60;;;20.30;67.90;;;;;;10479006;28;20196;-29
2021/06/22 20:17:07;;;;;;;5.33;1.90;;;20.30;68.10;;;;;;10478959;28;20220;-29
2021/06/22 20:22:31;;;;;;;3.80;1.60;;;20.30;68.30;;;;;;10480541;28;20208;-29
2021/06/22 20:27:54;;;;;;;3.83;1.53;;;20.30;68.30;;;;;;10481066;28;20705;-28
2021/06/22 20:33:17;;;;;;;4.87;1.37;;;20.30;68.50;;;;;;10475342;28;20258;-28
2021/06/22 20:38:40;;;;;;;5.07;2.00;;;20.30;68.60;;;;;;10473772;28;20591;-29
2021/06/22 20:44:02;;;;;;;3.53;1.60;;;20.30;68.60;;;;;;10475657;28;20220;-28
2021/06/22 20:49:24;;;;;;;3.93;1.50;;;20.30;68.60;;;;;;10473601;28;20216;-28
2021/06/22 20:54:48;;;;;;;3.77;1.40;;;20.30;68.60;;;;;;10471354;28;20559;-28
2021/06/22 21:00:12;;;;;;;4.23;1.50;;;20.30;68.70;;;;;;10480390;28;20220;-28
2021/06/22 21:05:34;;;;;;;3.57;1.80;;;20.30;68.80;;;;;;10513479;28;20686;-28
2021/06/22 21:10:57;;;;;;;4.30;1.63;;;20.30;68.70;;;;;;10509236;28;20184;-28
2021/06/22 21:16:19;;;;;;;3.50;1.47;;;20.30;68.70;;;;;;10496548;28;20212;-27
2021/06/22 21:21:41;;;;;;;2.80;1.20;;;20.30;68.90;;;;;;10482971;28;20212;-28
2021/06/22 21:27:06;;;;;;;3.87;1.50;;;20.30;69.00;;;;;;10495832;28;20204;-29
2021/06/22 21:32:28;;;;;;;4.53;1.60;;;20.30;68.90;;;;;;10485446;28;20192;-29
2021/06/22 21:37:50;;;;;;;3.97;1.50;;;20.30;68.90;;;;;;10482828;28;20217;-28
2021/06/22 21:43:14;;;;;;;2.90;1.60;;;20.30;68.90;;;;;;10454735;28;20217;-30
2021/06/22 21:48:37;;;;;;;3.00;1.60;;;20.30;68.90;;;;;;10455107;28;20577;-30
2021/06/22 21:53:59;;;;;;;4.77;1.43;;;20.30;69.00;;;;;;10479448;28;20200;-29
2021/06/22 21:59:22;;;;;;;2.80;1.40;;;20.30;69.00;;;;;;10495904;28;20359;-29
2021/06/22 22:04:44;;;;;;;6.30;1.40;;;20.30;69.00;;;;;;10485604;28;20220;-29
2021/06/22 22:10:08;;;;;;;2.70;1.30;;;20.30;69.00;;;;;;10519682;22;20247;-31
2021/06/22 22:15:33;;;;;;;2.10;1.10;;;20.30;69.10;;;;;;10500311;28;20206;-30
2021/06/22 22:20:55;;;;;;;3.07;1.63;;;20.30;69.20;;;;;;10471082;28;20430;-31
2021/06/22 22:26:19;;;;;;;3.67;1.70;;;20.30;69.10;;;;;;10479068;28;20224;-27
2021/06/22 22:31:42;;;;;;;2.63;1.60;;;20.30;69.30;;;;;;10483774;28;20629;-31
2021/06/22 22:37:05;;;;;;;2.50;1.73;;;20.30;69.20;;;;;;10493736;28;20208;-29
2021/06/22 22:42:27;;;;;;;2.07;1.30;;;20.30;69.10;;;;;;10477986;28;20227;-30
2021/06/22 22:47:50;;;;;;;2.60;1.60;;;20.30;69.10;;;;;;10493350;28;20702;-32
2021/06/22 22:53:12;;;;;;;5.47;1.77;;;20.30;69.20;;;;;;10486480;28;20208;-30
2021/06/22 22:58:34;;;;;;;1.80;1.40;;;20.30;69.20;;;;;;10460253;28;20228;-29
2021/06/22 23:03:58;;;;;;;2.53;1.40;;;20.30;69.20;;;;;;10483403;28;20223;-29
2021/06/22 23:09:20;;;;;;;4.57;1.43;;;20.30;69.30;;;;;;10493559;28;20220;-30
2021/06/22 23:14:42;;;;;;;2.40;1.50;;;20.30;69.20;;;;;;10476988;28;20204;-31
2021/06/22 23:20:07;;;;;;;4.40;1.80;;;20.30;69.20;;;;;;10461135;28;20696;-29
2021/06/22 23:25:29;;;;;;;2.83;1.77;;;20.30;69.50;;;;;;10470509;28;20215;-30
2021/06/22 23:30:51;;;;;;;4.70;2.10;;;20.30;69.40;;;;;;10491206;28;20199;-29
2021/06/22 23:36:15;;;;;;;4.07;1.60;;;20.30;69.30;;;;;;10485039;28;20212;-30
2021/06/22 23:41:37;;;;;;;3.70;1.80;;;20.30;69.20;;;;;;10492769;28;20204;-31
2021/06/22 23:46:59;;;;;;;2.63;1.50;;;20.30;69.30;;;;;;10487474;28;20217;-31
2021/06/22 23:52:22;;;;;;;2.87;1.63;;;20.30;69.20;;;;;;10471119;28;20207;-34
2021/06/22 23:57:45;;;;;;;3.90;1.70;;;20.30;70.00;;;;;;10450658;28;20220;-30
